Time;durP1;ratioP1;P1;durP2;ratioP2;P2;SDS_P1;SDS_P2;PMS_P1;PMS_P2;Temp;Humidity;BMP_temperature;BMP_pressure;BME280_temperature;BME280_humidity;BME280_pressure;Samples;Min_cycle;Max_cycle;Signal;HPM_P1;HPM_P2
2021/12/02 00:00:35;;;;;;;2.67;2.10;;;6.80;99.90;;;;;;5047197;28;20371;-80
2021/12/02 00:03:04;;;;;;;1.40;1.30;;;6.80;99.90;;;;;;5047219;28;20157;-80
2021/12/02 00:05:30;;;;;;;1.83;1.73;;;6.90;99.90;;;;;;5030177;28;20515;-79
2021/12/02 00:07:56;;;;;;;1.50;1.40;;;7.00;99.90;;;;;;5036931;28;20375;-79
2021/12/02 00:10:27;;;;;;;4.17;1.80;;;6.80;99.90;;;;;;5038734;28;20172;-80
2021/12/02 00:12:54;;;;;;;1.97;1.77;;;6.80;99.90;;;;;;5048675;28;20219;-80
2021/12/02 00:15:24;;;;;;;2.27;1.60;;;6.90;99.90;;;;;;5047820;28;20437;-80
2021/12/02 00:17:58;;;;;;;1.60;1.50;;;6.90;99.90;;;;;;5048824;28;20434;-80
2021/12/02 00:23:29;;;;;;;1.63;1.53;;;6.90;99.90;;;;;;5047704;28;20409;-79
2021/12/02 00:25:57;;;;;;;2.27;1.43;;;6.90;99.90;;;;;;5047596;28;20404;-79
2021/12/02 00:28:26;;;;;;;2.17;1.70;;;6.90;99.90;;;;;;5047732;28;20396;-79
2021/12/02 00:30:55;;;;;;;2.00;1.63;;;6.90;99.90;;;;;;5047542;28;20402;-80
2021/12/02 00:33:24;;;;;;;2.40;1.80;;;6.90;99.90;;;;;;5047059;28;20453;-79
2021/12/02 00:35:52;;;;;;;2.00;1.90;;;6.90;99.90;;;;;;5047229;28;20424;-80
2021/12/02 00:38:20;;;;;;;3.40;1.60;;;7.00;99.90;;;;;;5047757;28;20373;-79
2021/12/02 00:40:46;;;;;;;2.40;1.47;;;7.00;99.90;;;;;;5030958;28;20399;-80
2021/12/02 00:43:13;;;;;;;1.60;1.50;;;7.00;99.90;;;;;;5047500;28;20471;-80
2021/12/02 00:45:41;;;;;;;1.40;1.30;;;6.90;99.90;;;;;;5048455;28;20400;-80
2021/12/02 00:48:10;;;;;;;1.40;1.20;;;6.90;99.90;;;;;;5048299;28;20370;-80
2021/12/02 00:50:42;;;;;;;2.90;1.93;;;6.90;99.90;;;;;;5047810;28;20478;-80
2021/12/02 00:53:08;;;;;;;3.67;2.27;;;6.80;99.90;;;;;;5048966;28;20463;-80
2021/12/02 00:55:38;;;;;;;1.57;1.47;;;6.90;99.90;;;;;;5031149;28;20439;-80
2021/12/02 00:58:04;;;;;;;1.73;1.63;;;6.90;99.90;;;;;;5048988;28;20396;-79
2021/12/02 01:00:31;;;;;;;1.50;1.40;;;6.90;99.90;;;;;;5049623;28;20359;-80
2021/12/02 01:03:01;;;;;;;1.40;1.30;;;7.00;99.90;;;;;;5053012;28;20454;-80
2021/12/02 01:05:28;;;;;;;1.40;1.30;;;7.00;99.90;;;;;;5051747;28;20378;-79
2021/12/02 01:07:54;;;;;;;2.10;1.43;;;6.90;99.90;;;;;;5050587;28;20434;-80
2021/12/02 01:10:21;;;;;;;1.70;1.60;;;6.80;99.90;;;;;;5050228;28;20482;-79
2021/12/02 01:12:49;;;;;;;2.00;1.90;;;6.80;99.90;;;;;;5050624;28;20169;-79
2021/12/02 01:15:17;;;;;;;4.00;1.60;;;6.90;99.90;;;;;;5048376;28;20437;-80
2021/12/02 01:17:43;;;;;;;1.97;1.87;;;6.70;99.90;;;;;;5050465;28;20380;-79
2021/12/02 01:20:10;;;;;;;1.70;1.60;;;6.60;99.90;;;;;;5050621;28;20235;-80
2021/12/02 01:22:38;;;;;;;1.60;1.50;;;6.60;99.90;;;;;;5050736;28;20421;-79
2021/12/02 01:25:06;;;;;;;3.13;2.83;;;6.60;99.90;;;;;;5050253;28;20432;-79
2021/12/02 01:27:35;;;;;;;1.80;1.50;;;6.50;99.90;;;;;;5051444;28;20378;-80
2021/12/02 01:30:03;;;;;;;4.23;1.80;;;6.50;99.90;;;;;;5051653;28;20366;-79
2021/12/02 01:32:34;;;;;;;3.57;1.80;;;6.40;99.90;;;;;;5050864;28;20390;-80
2021/12/02 01:35:04;;;;;;;1.80;1.50;;;6.40;99.90;;;;;;5050651;28;20422;-80
2021/12/02 01:37:30;;;;;;;5.90;1.60;;;6.60;99.90;;;;;;5051734;28;20379;-80
2021/12/02 01:39:57;;;;;;;2.17;1.77;;;6.70;99.90;;;;;;5051373;28;20526;-80
2021/12/02 01:42:26;;;;;;;2.50;1.73;;;6.70;99.90;;;;;;5051169;28;20403;-80
2021/12/02 01:44:58;;;;;;;1.60;1.50;;;6.80;99.90;;;;;;5052209;28;20449;-81
2021/12/02 01:47:27;;;;;;;1.60;1.50;;;6.70;99.90;;;;;;5054490;28;20407;-79
2021/12/02 01:49:57;;;;;;;2.53;1.70;;;6.70;99.90;;;;;;5060499;28;20439;-78
2021/12/02 01:52:31;;;;;;;1.60;1.50;;;6.60;99.90;;;;;;5060484;28;20396;-78
2021/12/02 01:55:12;;;;;;;5.23;1.77;;;6.50;99.90;;;;;;5043276;28;20438;-80
2021/12/02 01:57:46;;;;;;;2.20;2.10;;;6.60;99.90;;;;;;5033427;28;20418;-79
2021/12/02 02:00:18;;;;;;;3.10;2.30;;;6.60;99.90;;;;;;5048297;28;20480;-80
2021/12/02 02:02:46;;;;;;;2.33;2.13;;;6.60;99.90;;;;;;5030465;28;20378;-79
2021/12/02 02:05:13;;;;;;;2.33;2.13;;;6.60;99.90;;;;;;5030919;28;20524;-79
2021/12/02 02:08:05;;;;;;;2.27;2.00;;;6.60;99.90;;;;;;5051811;28;20442;-79
2021/12/02 02:10:34;;;;;;;1.70;1.60;;;6.60;99.90;;;;;;5053028;28;20378;-80
2021/12/02 02:13:04;;;;;;;3.00;2.50;;;6.60;99.90;;;;;;5052086;28;20413;-80
2021/12/02 02:15:30;;;;;;;1.70;1.60;;;6.50;99.90;;;;;;5052637;28;20481;-80
2021/12/02 02:18:01;;;;;;;3.00;1.80;;;6.50;99.90;;;;;;5052830;28;20388;-79
2021/12/02 02:20:42;;;;;;;1.70;1.60;;;6.40;99.90;;;;;;5049496;28;20474;-80
2021/12/02 02:23:12;;;;;;;1.50;1.40;;;6.50;99.90;;;;;;5049437;28;20374;-80
2021/12/02 02:25:38;;;;;;;2.50;2.00;;;6.40;99.90;;;;;;5049488;28;20411;-79
2021/12/02 02:28:05;;;;;;;2.87;1.80;;;6.40;99.90;;;;;;5048847;28;20397;-80
2021/12/02 02:30:31;;;;;;;2.40;2.20;;;6.50;99.90;;;;;;5049735;28;20381;-80
2021/12/02 02:32:57;;;;;;;4.20;2.10;;;6.60;99.90;;;;;;5049646;28;20405;-79
2021/12/02 02:35:23;;;;;;;3.13;1.70;;;6.40;99.90;;;;;;5048951;28;20727;-80
2021/12/02 02:37:49;;;;;;;12.50;2.40;;;6.50;99.90;;;;;;5031370;28;20389;-79
2021/12/02 02:40:16;;;;;;;2.20;1.80;;;6.50;99.90;;;;;;5031261;28;20406;-79
2021/12/02 02:42:48;;;;;;;2.40;2.20;;;6.50;99.90;;;;;;5049053;28;20200;-80
2021/12/02 02:45:14;;;;;;;3.33;2.10;;;6.40;99.90;;;;;;5048887;28;20404;-79
2021/12/02 02:47:41;;;;;;;3.00;2.10;;;6.40;99.90;;;;;;5049072;28;20371;-80
2021/12/02 02:50:13;;;;;;;2.47;2.00;;;6.40;99.90;;;;;;5048773;28;20928;-80
2021/12/02 02:52:39;;;;;;;2.83;2.50;;;6.40;99.90;;;;;;5031648;28;20403;-80
2021/12/02 02:55:07;;;;;;;3.60;1.90;;;6.50;99.90;;;;;;5031692;28;20441;-79
2021/12/02 02:57:41;;;;;;;2.40;1.77;;;6.40;99.90;;;;;;5048899;28;20381;-79
2021/12/02 03:00:12;;;;;;;2.47;2.27;;;6.40;99.90;;;;;;5048988;28;20374;-80
2021/12/02 03:02:54;;;;;;;2.03;1.67;;;6.30;99.90;;;;;;5048010;28;20398;-80
2021/12/02 03:05:32;;;;;;;1.80;1.50;;;6.30;99.90;;;;;;5048488;28;20370;-80
2021/12/02 03:08:10;;;;;;;2.50;1.57;;;6.20;99.90;;;;;;5048296;28;20869;-79
2021/12/02 03:10:47;;;;;;;1.30;1.20;;;6.10;99.90;;;;;;5048577;28;20366;-79
2021/12/02 03:13:18;;;;;;;1.50;1.40;;;6.00;99.90;;;;;;5048673;28;20373;-79
2021/12/02 03:18:38;;;;;;;1.33;1.23;;;5.90;99.90;;;;;;5045178;28;20403;-79
2021/12/02 03:21:19;;;;;;;2.90;1.80;;;6.00;99.90;;;;;;5046405;28;20589;-80
2021/12/02 03:23:49;;;;;;;1.50;1.40;;;5.90;99.90;;;;;;5045643;28;20157;-79
2021/12/02 03:26:14;;;;;;;2.43;1.63;;;5.90;99.90;;;;;;5046592;28;20390;-80
2021/12/02 03:28:40;;;;;;;1.83;1.73;;;5.90;99.90;;;;;;5046894;28;20416;-79
2021/12/02 03:31:09;;;;;;;1.37;1.27;;;5.90;99.90;;;;;;5057250;28;20181;-80
2021/12/02 03:33:55;;;;;;;4.23;1.20;;;6.00;99.90;;;;;;5051594;28;20185;-80
2021/12/02 03:36:21;;;;;;;1.40;1.30;;;5.90;99.90;;;;;;5027045;28;20442;-80
2021/12/02 03:38:47;;;;;;;4.63;1.73;;;5.90;99.90;;;;;;5027989;28;20383;-80
2021/12/02 03:41:14;;;;;;;1.33;1.23;;;5.80;99.90;;;;;;5026956;28;20413;-79
2021/12/02 03:43:44;;;;;;;1.53;1.40;;;5.80;99.90;;;;;;5027435;28;20364;-80
2021/12/02 03:46:12;;;;;;;1.53;1.43;;;5.80;99.90;;;;;;5026965;28;20390;-80
2021/12/02 03:48:38;;;;;;;1.60;1.50;;;5.90;99.90;;;;;;5010522;28;20375;-79
2021/12/02 03:51:06;;;;;;;1.20;1.10;;;5.90;99.90;;;;;;5026542;28;20628;-79
2021/12/02 03:53:32;;;;;;;4.23;1.50;;;5.80;99.90;;;;;;5009696;28;20383;-80
2021/12/02 03:55:58;;;;;;;2.13;1.40;;;5.80;99.90;;;;;;5025989;28;20434;-79
2021/12/02 03:58:24;;;;;;;1.67;1.57;;;5.80;99.90;;;;;;5025928;28;20744;-79
2021/12/02 04:00:49;;;;;;;1.40;1.30;;;5.80;99.90;;;;;;5025142;28;20211;-79
2021/12/02 04:03:15;;;;;;;1.93;1.60;;;5.80;99.90;;;;;;5026204;28;20371;-79
2021/12/02 04:05:41;;;;;;;1.97;1.27;;;5.80;99.90;;;;;;5009398;28;20176;-79
2021/12/02 04:08:10;;;;;;;1.53;1.20;;;5.80;99.90;;;;;;5043970;28;20389;-79
2021/12/02 04:10:37;;;;;;;1.70;1.60;;;5.80;99.90;;;;;;5030558;28;20240;-79
2021/12/02 04:13:10;;;;;;;1.57;1.20;;;5.70;99.90;;;;;;5048371;28;20470;-79
2021/12/02 04:15:39;;;;;;;1.47;1.37;;;5.70;99.90;;;;;;5047817;28;20433;-80
2021/12/02 04:18:06;;;;;;;1.70;1.40;;;5.80;99.90;;;;;;5047589;28;20499;-80
2021/12/02 04:20:33;;;;;;;1.77;1.50;;;5.80;99.90;;;;;;5047753;28;20426;-80
2021/12/02 04:22:59;;;;;;;2.53;1.60;;;5.80;99.90;;;;;;5047359;28;20410;-79
2021/12/02 04:25:26;;;;;;;1.43;1.33;;;5.70;99.90;;;;;;5047929;28;20373;-79
2021/12/02 04:27:53;;;;;;;2.20;1.93;;;5.70;99.90;;;;;;5029825;28;20374;-80
2021/12/02 04:30:23;;;;;;;1.93;1.80;;;5.60;99.90;;;;;;5048282;28;20442;-80
2021/12/02 04:32:50;;;;;;;2.90;1.70;;;5.60;99.90;;;;;;5067763;28;20380;-80
2021/12/02 04:35:16;;;;;;;1.57;1.47;;;5.70;99.90;;;;;;5067868;28;20508;-80
2021/12/02 04:37:44;;;;;;;3.10;2.00;;;5.70;99.90;;;;;;5071126;28;20373;-80
2021/12/02 04:40:18;;;;;;;1.50;1.40;;;5.60;99.90;;;;;;5071699;28;20377;-80
2021/12/02 04:42:44;;;;;;;1.80;1.70;;;5.70;99.90;;;;;;5072145;28;20361;-80
2021/12/02 04:45:12;;;;;;;1.90;1.63;;;5.60;99.90;;;;;;5071792;28;20370;-80
2021/12/02 04:47:38;;;;;;;2.10;1.67;;;5.60;99.90;;;;;;5069134;28;20392;-80
2021/12/02 04:50:06;;;;;;;2.83;2.43;;;5.70;99.90;;;;;;5072818;28;20396;-80
2021/12/02 04:52:32;;;;;;;1.73;1.63;;;5.60;99.90;;;;;;5053515;28;20382;-78
2021/12/02 04:54:58;;;;;;;1.40;1.30;;;5.70;99.90;;;;;;5070420;28;20460;-80
2021/12/02 04:57:24;;;;;;;2.80;1.87;;;5.70;99.90;;;;;;5069954;28;20437;-80
2021/12/02 04:59:49;;;;;;;3.90;1.63;;;5.70;99.90;;;;;;5072165;28;20559;-80
2021/12/02 05:02:15;;;;;;;1.90;1.70;;;5.70;99.90;;;;;;5072528;28;20184;-80
2021/12/02 05:04:41;;;;;;;1.17;1.07;;;5.70;99.90;;;;;;5071700;28;20183;-80
2021/12/02 05:07:07;;;;;;;1.60;1.50;;;5.60;99.90;;;;;;5070753;28;20157;-80
2021/12/02 05:09:34;;;;;;;3.73;1.63;;;5.70;99.90;;;;;;5072711;28;20227;-79
2021/12/02 05:12:00;;;;;;;7.53;1.50;;;5.80;99.90;;;;;;5069085;28;20373;-80
2021/12/02 05:14:26;;;;;;;1.60;1.50;;;5.70;99.90;;;;;;5069486;28;20373;-79
2021/12/02 05:16:54;;;;;;;3.87;1.67;;;5.80;99.90;;;;;;5069307;28;20424;-79
2021/12/02 05:19:19;;;;;;;1.57;1.47;;;5.70;99.90;;;;;;5068752;28;20446;-80
2021/12/02 05:21:45;;;;;;;1.60;1.50;;;5.60;99.90;;;;;;5069378;28;20416;-78
2021/12/02 05:24:11;;;;;;;1.30;1.20;;;5.60;99.90;;;;;;5068522;28;20165;-79
2021/12/02 05:26:38;;;;;;;1.60;1.50;;;5.60;99.90;;;;;;5069210;28;20251;-79
2021/12/02 05:29:04;;;;;;;2.10;1.53;;;5.70;99.90;;;;;;5068132;28;20390;-78
2021/12/02 05:31:30;;;;;;;1.50;1.40;;;5.50;99.90;;;;;;5069545;28;20373;-78
2021/12/02 05:33:56;;;;;;;1.70;1.60;;;5.60;99.90;;;;;;5069687;28;20383;-78
2021/12/02 05:36:22;;;;;;;1.97;1.77;;;5.70;99.90;;;;;;5069952;28;20449;-79
2021/12/02 05:38:48;;;;;;;3.37;1.67;;;5.70;99.90;;;;;;5069020;28;20171;-79
2021/12/02 05:41:15;;;;;;;2.10;1.93;;;5.70;99.90;;;;;;5069544;28;20386;-79
2021/12/02 05:43:41;;;;;;;1.43;1.33;;;5.70;99.90;;;;;;5069572;28;20168;-79
2021/12/02 05:46:08;;;;;;;2.10;2.00;;;5.80;99.90;;;;;;5068723;28;20381;-79
2021/12/02 05:48:34;;;;;;;1.80;1.70;;;5.80;99.90;;;;;;5050898;28;20377;-79
2021/12/02 05:51:00;;;;;;;2.23;2.10;;;5.80;99.90;;;;;;5071597;28;20373;-79
2021/12/02 05:53:25;;;;;;;3.87;1.93;;;5.80;99.90;;;;;;5073765;28;20373;-79
2021/12/02 05:55:52;;;;;;;2.70;1.53;;;5.80;99.90;;;;;;5074072;28;20195;-78
2021/12/02 05:58:18;;;;;;;2.27;2.13;;;5.90;99.90;;;;;;5074124;28;20210;-79
2021/12/02 06:00:44;;;;;;;4.30;1.80;;;5.90;99.90;;;;;;5071680;28;20374;-79
2021/12/02 06:03:10;;;;;;;1.63;1.53;;;5.80;99.90;;;;;;5072033;28;20420;-79
2021/12/02 06:05:36;;;;;;;1.80;1.70;;;5.70;99.90;;;;;;5072847;28;20164;-79
2021/12/02 06:08:03;;;;;;;2.40;2.30;;;5.70;99.90;;;;;;5072977;28;20384;-79
2021/12/02 06:10:30;;;;;;;4.60;1.80;;;5.70;99.90;;;;;;5070699;28;20369;-79
2021/12/02 06:12:57;;;;;;;4.03;2.50;;;5.70;99.90;;;;;;5069551;28;20775;-79
2021/12/02 06:15:23;;;;;;;2.40;2.00;;;5.60;99.90;;;;;;5068404;28;20420;-78
2021/12/02 06:17:49;;;;;;;2.60;2.47;;;5.60;99.90;;;;;;5069167;28;20463;-79
2021/12/02 06:20:18;;;;;;;3.30;2.40;;;5.50;99.90;;;;;;5068685;28;20448;-79
2021/12/02 06:22:45;;;;;;;3.90;3.60;;;5.60;99.90;;;;;;5051082;28;20421;-78
2021/12/02 06:27:56;;;;;;;4.73;2.20;;;5.60;99.90;;;;;;5042429;28;21525;-81
2021/12/02 06:30:26;;;;;;;2.57;2.37;;;5.50;99.90;;;;;;5062701;28;20414;-80
2021/12/02 06:32:52;;;;;;;2.50;2.30;;;5.50;99.90;;;;;;5062946;28;20260;-80
2021/12/02 06:35:18;;;;;;;2.00;1.77;;;5.50;99.90;;;;;;5050970;28;20557;-79
2021/12/02 06:37:46;;;;;;;3.40;2.50;;;5.50;99.90;;;;;;5069727;28;20370;-80
2021/12/02 06:40:13;;;;;;;2.43;2.33;;;5.40;99.90;;;;;;5069209;28;20447;-79
2021/12/02 06:42:40;;;;;;;2.60;2.20;;;5.40;99.90;;;;;;5049569;28;20409;-80
2021/12/02 06:45:08;;;;;;;1.60;1.50;;;5.40;99.90;;;;;;5057706;28;20389;-80
2021/12/02 06:47:38;;;;;;;1.73;1.63;;;5.30;99.90;;;;;;5076080;28;20494;-79
2021/12/02 06:50:05;;;;;;;4.43;2.17;;;5.20;99.90;;;;;;5073884;28;20385;-80
2021/12/02 06:52:32;;;;;;;1.73;1.63;;;5.20;99.90;;;;;;5056691;28;20393;-80
2021/12/02 06:54:58;;;;;;;2.57;1.63;;;5.10;99.90;;;;;;5034110;28;20398;-80
2021/12/02 06:57:24;;;;;;;6.20;1.80;;;5.10;99.90;;;;;;5071570;28;20480;-79
2021/12/02 06:59:50;;;;;;;3.07;2.00;;;5.00;99.90;;;;;;5068775;28;20423;-79
2021/12/02 07:02:18;;;;;;;2.60;1.80;;;5.00;99.90;;;;;;5060382;28;20191;-79
2021/12/02 07:04:44;;;;;;;2.00;1.73;;;4.90;99.90;;;;;;5072156;28;20444;-80
2021/12/02 07:07:10;;;;;;;2.33;1.80;;;4.80;99.90;;;;;;5064235;28;20417;-80
2021/12/02 07:09:36;;;;;;;2.00;1.90;;;4.80;99.90;;;;;;5036614;28;20426;-79
2021/12/02 07:12:02;;;;;;;2.40;1.77;;;4.70;99.90;;;;;;5056366;28;20192;-80
2021/12/02 07:14:28;;;;;;;3.80;1.77;;;4.50;99.90;;;;;;5063955;28;20236;-79
2021/12/02 07:16:54;;;;;;;2.33;1.50;;;4.40;99.90;;;;;;5069590;28;20795;-79
2021/12/02 07:19:20;;;;;;;1.47;1.37;;;4.40;99.90;;;;;;5040575;28;20478;-80
2021/12/02 07:21:47;;;;;;;1.40;1.30;;;4.40;99.90;;;;;;5042847;28;20448;-79
2021/12/02 07:24:15;;;;;;;1.50;1.40;;;4.40;99.90;;;;;;5037699;28;20219;-79
2021/12/02 07:26:43;;;;;;;1.20;1.10;;;4.30;99.90;;;;;;5044107;28;20402;-79
2021/12/02 07:29:11;;;;;;;1.77;1.40;;;4.40;99.90;;;;;;5029948;28;20864;-79
2021/12/02 07:31:39;;;;;;;3.90;2.87;;;4.30;99.90;;;;;;5007522;28;20414;-79
2021/12/02 07:34:06;;;;;;;3.67;2.07;;;4.30;99.90;;;;;;5033139;28;20875;-79
2021/12/02 07:36:35;;;;;;;1.50;1.40;;;4.30;99.90;;;;;;5032272;28;20548;-79
2021/12/02 07:39:04;;;;;;;1.50;1.40;;;4.30;99.90;;;;;;5039593;28;20827;-80
2021/12/02 07:41:30;;;;;;;1.90;1.80;;;4.40;99.90;;;;;;5045463;28;20409;-80
2021/12/02 07:43:56;;;;;;;1.63;1.53;;;4.10;99.90;;;;;;5041585;28;20394;-79
2021/12/02 07:46:22;;;;;;;2.07;1.70;;;4.20;99.90;;;;;;5034312;28;21020;-78
2021/12/02 07:48:48;;;;;;;2.77;1.90;;;4.20;99.90;;;;;;5033729;28;20349;-78
2021/12/02 07:51:16;;;;;;;1.50;1.40;;;4.20;99.90;;;;;;5036022;28;20535;-79
2021/12/02 07:53:48;;;;;;;1.27;1.17;;;3.40;99.90;;;;;;5044463;28;20661;-78
2021/12/02 07:56:16;;;;;;;2.03;1.73;;;3.60;99.90;;;;;;5031463;28;20438;-80
2021/12/02 07:59:05;;;;;;;3.00;1.80;;;3.80;99.90;;;;;;5043652;28;20429;-80
2021/12/02 08:01:34;;;;;;;2.17;1.70;;;3.90;99.90;;;;;;5057053;28;20459;-79
2021/12/02 08:04:01;;;;;;;1.20;1.10;;;3.80;99.90;;;;;;5058910;28;20760;-78
2021/12/02 08:06:27;;;;;;;1.57;1.47;;;3.80;99.90;;;;;;5039357;28;20412;-80
2021/12/02 08:08:54;;;;;;;1.87;1.77;;;3.90;99.90;;;;;;5059365;28;20389;-80
2021/12/02 08:11:19;;;;;;;1.70;1.60;;;3.80;99.90;;;;;;5062173;28;20420;-79
2021/12/02 08:13:51;;;;;;;1.73;1.63;;;3.70;99.90;;;;;;5068204;28;20409;-80
2021/12/02 08:16:18;;;;;;;2.03;1.40;;;3.80;99.90;;;;;;5066008;28;20223;-80
2021/12/02 08:18:44;;;;;;;1.57;1.47;;;3.90;99.90;;;;;;5059053;28;20465;-80
2021/12/02 08:21:10;;;;;;;1.77;1.67;;;3.90;99.90;;;;;;5054723;28;20465;-80
2021/12/02 08:23:36;;;;;;;1.53;1.37;;;3.90;99.90;;;;;;5069255;28;20409;-80
2021/12/02 08:26:02;;;;;;;1.83;1.73;;;3.60;99.90;;;;;;5058932;28;20179;-80
2021/12/02 08:28:28;;;;;;;4.90;2.93;;;3.80;99.90;;;;;;5043262;28;20544;-80
2021/12/02 08:30:56;;;;;;;6.00;2.50;;;3.90;99.90;;;;;;5060164;28;20393;-79
2021/12/02 08:33:22;;;;;;;1.50;1.40;;;3.90;99.90;;;;;;5041065;28;20435;-80
2021/12/02 08:35:48;;;;;;;1.93;1.70;;;3.90;99.90;;;;;;5028184;28;21056;-79
2021/12/02 08:38:16;;;;;;;1.63;1.53;;;3.40;99.90;;;;;;5032964;28;20179;-79
2021/12/02 08:40:44;;;;;;;1.80;1.70;;;2.90;99.90;;;;;;5041986;28;20454;-79
2021/12/02 08:43:12;;;;;;;2.03;1.83;;;3.00;99.90;;;;;;5040530;28;20506;-80
2021/12/02 08:45:40;;;;;;;1.40;1.30;;;2.80;99.90;;;;;;5039764;28;20417;-79
2021/12/02 08:48:07;;;;;;;2.30;2.10;;;2.50;99.90;;;;;;5040469;28;20397;-80
2021/12/02 08:50:35;;;;;;;2.00;1.90;;;2.70;99.90;;;;;;5035991;28;20673;-80
2021/12/02 08:53:02;;;;;;;4.50;2.13;;;2.60;99.90;;;;;;5029322;28;20428;-81
2021/12/02 08:55:30;;;;;;;2.43;2.23;;;2.40;99.90;;;;;;5038313;28;20459;-81
2021/12/02 08:57:57;;;;;;;1.60;1.50;;;2.60;99.90;;;;;;5038316;28;20421;-81
2021/12/02 09:00:32;;;;;;;2.27;2.07;;;2.40;99.90;;;;;;5032890;28;20443;-81
2021/12/02 09:02:59;;;;;;;3.10;1.60;;;2.30;99.90;;;;;;5035243;28;20420;-80
2021/12/02 09:05:25;;;;;;;1.87;1.70;;;2.30;99.90;;;;;;5037979;28;20406;-81
2021/12/02 09:07:51;;;;;;;2.47;1.83;;;2.30;99.90;;;;;;5038935;28;20443;-81
2021/12/02 09:10:21;;;;;;;2.53;1.77;;;2.30;99.90;;;;;;5042881;28;20516;-81
2021/12/02 09:12:47;;;;;;;1.80;1.70;;;2.20;99.90;;;;;;5043170;28;20406;-80
2021/12/02 09:15:13;;;;;;;1.80;1.70;;;2.20;99.90;;;;;;5031696;28;20490;-81
2021/12/02 09:17:39;;;;;;;4.40;2.37;;;2.30;99.90;;;;;;5039555;28;20438;-80
2021/12/02 09:20:08;;;;;;;1.70;1.60;;;2.40;99.90;;;;;;5053990;28;20533;-81
2021/12/02 09:22:35;;;;;;;1.87;1.63;;;2.50;99.90;;;;;;5063147;28;20428;-81
2021/12/02 09:25:01;;;;;;;2.30;2.10;;;2.70;99.90;;;;;;5060058;28;20439;-81
2021/12/02 09:27:26;;;;;;;1.70;1.60;;;2.80;99.90;;;;;;5058481;28;20452;-80
2021/12/02 09:29:52;;;;;;;1.97;1.80;;;2.80;99.90;;;;;;5048765;28;20198;-81
2021/12/02 09:32:18;;;;;;;2.33;2.13;;;2.90;99.90;;;;;;5060980;28;20400;-81
2021/12/02 09:34:44;;;;;;;5.63;2.50;;;3.10;99.90;;;;;;5040899;28;20664;-80
2021/12/02 09:37:10;;;;;;;2.80;2.13;;;2.90;99.90;;;;;;5069818;28;20168;-80
2021/12/02 09:39:36;;;;;;;2.27;1.83;;;3.20;99.90;;;;;;5071631;28;20184;-80
2021/12/02 09:42:05;;;;;;;2.10;1.90;;;3.30;99.90;;;;;;5041322;28;20444;-79
2021/12/02 09:44:31;;;;;;;5.20;2.37;;;3.20;99.90;;;;;;5072526;28;20469;-80
2021/12/02 09:46:57;;;;;;;3.73;2.40;;;3.20;99.90;;;;;;5066619;28;20422;-80
2021/12/02 09:49:24;;;;;;;3.03;1.80;;;3.10;99.90;;;;;;5064771;28;20188;-80
2021/12/02 09:52:02;;;;;;;6.27;2.50;;;2.90;99.90;;;;;;5045089;28;20472;-80
2021/12/02 09:54:32;;;;;;;3.97;2.70;;;3.00;99.90;;;;;;5065850;28;20415;-80
2021/12/02 09:57:01;;;;;;;2.80;2.30;;;3.00;99.90;;;;;;5058394;28;20484;-80
2021/12/02 09:59:39;;;;;;;21.93;3.30;;;3.10;99.90;;;;;;5067091;28;20421;-80
2021/12/02 10:02:07;;;;;;;2.30;2.10;;;3.20;99.90;;;;;;5065279;28;20432;-79
2021/12/02 10:04:40;;;;;;;2.13;2.03;;;3.20;99.90;;;;;;5063224;28;20400;-79
2021/12/02 10:07:31;;;;;;;1.77;1.67;;;3.10;99.90;;;;;;5064077;28;20431;-79
2021/12/02 10:13:10;;;;;;;1.83;1.60;;;3.30;99.90;;;;;;5058389;28;20418;-79
2021/12/02 10:15:38;;;;;;;3.57;2.67;;;3.30;99.90;;;;;;5059183;28;20437;-81
2021/12/02 10:18:13;;;;;;;3.20;2.37;;;3.70;99.90;;;;;;5062153;28;20424;-80
2021/12/02 10:20:42;;;;;;;1.67;1.57;;;3.70;99.90;;;;;;5061051;28;20481;-81
2021/12/02 10:23:15;;;;;;;1.40;1.30;;;3.70;99.90;;;;;;5060232;28;20441;-81
2021/12/02 10:26:04;;;;;;;2.17;1.60;;;3.80;99.90;;;;;;5063719;28;20401;-80
2021/12/02 10:28:35;;;;;;;2.67;1.37;;;4.00;99.90;;;;;;5055053;28;20450;-79
2021/12/02 10:31:04;;;;;;;1.70;1.60;;;4.10;99.90;;;;;;5058751;28;20527;-79
2021/12/02 10:33:38;;;;;;;2.03;1.90;;;4.10;99.90;;;;;;5062800;28;20454;-79
2021/12/02 10:36:07;;;;;;;2.47;2.27;;;3.90;99.90;;;;;;5064841;28;20521;-79
2021/12/02 10:38:38;;;;;;;2.77;1.90;;;3.90;99.90;;;;;;5062108;28;20401;-79
2021/12/02 10:41:20;;;;;;;2.07;1.97;;;4.10;99.90;;;;;;5064212;28;20734;-80
2021/12/02 10:44:17;;;;;;;1.80;1.70;;;4.30;99.90;;;;;;5065453;28;20418;-80
2021/12/02 10:47:04;;;;;;;1.93;1.83;;;4.10;99.90;;;;;;5068122;28;20398;-80
2021/12/02 10:49:42;;;;;;;1.57;1.47;;;3.70;99.90;;;;;;5057456;28;20409;-80
2021/12/02 10:52:14;;;;;;;1.53;1.43;;;3.70;99.90;;;;;;5058935;28;20443;-80
2021/12/02 10:54:45;;;;;;;1.60;1.47;;;4.10;99.90;;;;;;5060866;28;20480;-77
2021/12/02 10:57:15;;;;;;;2.17;1.80;;;3.50;99.90;;;;;;5060464;28;20425;-79
2021/12/02 10:59:49;;;;;;;3.30;2.10;;;3.40;99.90;;;;;;5063107;28;20401;-79
2021/12/02 11:02:28;;;;;;;2.13;1.93;;;3.80;99.90;;;;;;5065659;28;20409;-80
2021/12/02 11:04:59;;;;;;;3.37;2.23;;;3.50;99.90;;;;;;5049951;28;20453;-80
2021/12/02 11:07:33;;;;;;;1.80;1.70;;;3.60;99.90;;;;;;5062585;28;20437;-79
2021/12/02 11:10:01;;;;;;;2.30;2.20;;;3.90;99.90;;;;;;5060820;28;20429;-80
2021/12/02 11:12:30;;;;;;;2.57;2.13;;;3.80;99.90;;;;;;5058104;28;20421;-79
2021/12/02 11:15:11;;;;;;;2.83;2.50;;;3.90;99.90;;;;;;5063120;28;20496;-80
2021/12/02 11:17:42;;;;;;;3.40;2.77;;;3.80;99.90;;;;;;5064159;28;20423;-80
2021/12/02 11:20:14;;;;;;;2.40;2.03;;;4.00;99.90;;;;;;5068904;28;20518;-79
2021/12/02 11:22:40;;;;;;;2.00;1.90;;;3.90;99.90;;;;;;5061310;28;20490;-79
2021/12/02 11:25:09;;;;;;;3.63;2.13;;;3.70;99.90;;;;;;5064944;28;20416;-80
2021/12/02 11:27:41;;;;;;;2.10;1.90;;;3.90;99.90;;;;;;5052142;28;20225;-79
2021/12/02 11:30:11;;;;;;;3.40;1.90;;;3.90;99.90;;;;;;5069233;28;20401;-80
2021/12/02 11:32:42;;;;;;;1.80;1.70;;;3.90;99.90;;;;;;5041887;28;20435;-80
2021/12/02 11:35:14;;;;;;;7.23;2.10;;;3.80;99.90;;;;;;5045727;28;20576;-79
2021/12/02 11:37:46;;;;;;;1.87;1.77;;;4.30;99.90;;;;;;5030157;28;20411;-79
2021/12/02 11:40:38;;;;;;;5.10;2.57;;;4.50;99.90;;;;;;5030074;28;20437;-78
2021/12/02 11:43:25;;;;;;;3.43;2.07;;;4.70;99.90;;;;;;5050986;28;20397;-79
2021/12/02 11:45:58;;;;;;;2.97;2.10;;;4.30;99.90;;;;;;5043787;28;20418;-78
2021/12/02 11:48:28;;;;;;;1.87;1.77;;;4.10;99.90;;;;;;4987180;28;20474;-78
2021/12/02 11:50:58;;;;;;;6.30;1.73;;;4.20;99.90;;;;;;4957282;28;20416;-78
2021/12/02 11:53:27;;;;;;;2.00;1.80;;;4.20;99.90;;;;;;4938173;29;20517;-78
2021/12/02 11:55:56;;;;;;;1.47;1.37;;;4.30;99.90;;;;;;4936874;28;20835;-78
2021/12/02 11:58:33;;;;;;;2.33;1.47;;;4.30;99.90;;;;;;4933444;28;20473;-79
2021/12/02 12:01:00;;;;;;;1.70;1.60;;;4.60;99.90;;;;;;4946835;28;20521;-79
2021/12/02 12:03:34;;;;;;;1.83;1.67;;;4.20;99.90;;;;;;4953857;28;20424;-79
2021/12/02 12:06:04;;;;;;;2.07;1.97;;;4.30;99.90;;;;;;4948313;28;20522;-80
2021/12/02 12:08:40;;;;;;;2.17;1.83;;;4.50;99.90;;;;;;4926660;28;20487;-79
2021/12/02 12:11:23;;;;;;;1.70;1.60;;;4.70;99.90;;;;;;4953401;28;20921;-80
2021/12/02 12:13:53;;;;;;;2.50;1.90;;;4.30;99.90;;;;;;4947544;28;20421;-80
2021/12/02 12:16:30;;;;;;;2.10;1.83;;;4.60;99.90;;;;;;4950335;28;20453;-80
2021/12/02 12:19:14;;;;;;;1.97;1.77;;;4.40;99.90;;;;;;4936509;28;20462;-79
2021/12/02 12:21:41;;;;;;;3.30;2.17;;;4.20;99.90;;;;;;4954511;28;20502;-79
2021/12/02 12:24:08;;;;;;;5.53;4.27;;;4.60;99.90;;;;;;4963407;28;20457;-78
2021/12/02 12:26:38;;;;;;;3.77;3.47;;;4.60;99.90;;;;;;4957720;28;20467;-81
2021/12/02 12:29:24;;;;;;;3.37;2.13;;;4.80;99.90;;;;;;4924499;29;20417;-82
2021/12/02 12:32:18;;;;;;;1.83;1.73;;;4.70;99.90;;;;;;4979183;28;20437;-81
2021/12/02 12:35:05;;;;;;;2.67;2.40;;;4.90;99.90;;;;;;5029737;28;20405;-81
2021/12/02 12:37:47;;;;;;;2.17;2.07;;;5.10;99.90;;;;;;5053883;28;20419;-81
2021/12/02 12:40:28;;;;;;;5.20;2.63;;;5.20;99.90;;;;;;5049813;28;20464;-80
2021/12/02 12:43:16;;;;;;;1.50;1.40;;;4.90;99.90;;;;;;5037262;28;20458;-80
2021/12/02 12:45:44;;;;;;;3.07;2.27;;;4.90;99.90;;;;;;5025569;28;20400;-80
2021/12/02 12:48:31;;;;;;;1.80;1.70;;;5.20;99.90;;;;;;5052884;28;20400;-80
2021/12/02 12:51:25;;;;;;;2.17;1.97;;;5.20;99.90;;;;;;5052884;28;20455;-81
2021/12/02 12:53:53;;;;;;;3.07;1.77;;;5.40;99.90;;;;;;5050070;28;20397;-80
2021/12/02 12:56:34;;;;;;;1.80;1.70;;;5.30;99.90;;;;;;5069170;28;20429;-80
2021/12/02 12:59:04;;;;;;;1.67;1.57;;;5.40;99.90;;;;;;5070087;28;20510;-80
2021/12/02 13:01:31;;;;;;;2.83;2.63;;;5.10;99.90;;;;;;5070817;28;20438;-79
2021/12/02 13:04:09;;;;;;;3.07;2.87;;;4.90;99.90;;;;;;5045307;28;20455;-81
2021/12/02 13:07:01;;;;;;;2.93;2.73;;;5.20;99.90;;;;;;5062386;28;20411;-79
2021/12/02 13:09:54;;;;;;;2.40;2.20;;;5.30;99.90;;;;;;5022402;28;20803;-81
2021/12/02 13:12:28;;;;;;;2.20;2.00;;;5.40;99.90;;;;;;5025995;28;20734;-80
2021/12/02 13:14:54;;;;;;;3.87;2.40;;;5.50;99.90;;;;;;5048862;28;20496;-80
2021/12/02 13:17:39;;;;;;;2.13;2.03;;;5.60;99.90;;;;;;5047568;28;20701;-81
2021/12/02 13:20:28;;;;;;;2.10;2.00;;;5.70;99.90;;;;;;5044148;28;20527;-81
2021/12/02 13:23:25;;;;;;;1.93;1.83;;;5.80;99.90;;;;;;5044823;28;20421;-80